Time;durP1;ratioP1;P1;durP2;ratioP2;P2;SDS_P1;SDS_P2;PMS_P1;PMS_P2;Temp;Humidity;BMP_temperature;BMP_pressure;BME280_temperature;BME280_humidity;BME280_pressure;Samples;Min_cycle;Max_cycle;Signal;HPM_P1;HPM_P2
2022/09/08 00:00:11;;;;;;;1.50;1.50;;;17.30;99.90;;;;;;478957;247;28842;-70
2022/09/08 00:02:11;;;;;;;1.63;1.53;;;17.30;99.90;;;;;;478924;248;28836;-70
2022/09/08 00:04:13;;;;;;;1.60;1.50;;;17.30;99.90;;;;;;478936;248;29224;-70
2022/09/08 00:06:16;;;;;;;1.50;1.50;;;17.20;99.90;;;;;;478892;248;29247;-72
2022/09/08 00:08:18;;;;;;;1.50;1.50;;;17.20;99.90;;;;;;478840;248;29167;-70
2022/09/08 00:10:17;;;;;;;1.40;1.40;;;17.20;99.90;;;;;;478788;248;29218;-70
2022/09/08 00:12:18;;;;;;;2.10;1.30;;;17.10;99.90;;;;;;478916;248;28813;-69
2022/09/08 00:14:19;;;;;;;1.50;1.40;;;17.10;99.90;;;;;;478941;246;28722;-71
2022/09/08 00:16:20;;;;;;;1.40;1.40;;;17.00;99.90;;;;;;478903;248;28752;-72
2022/09/08 00:18:23;;;;;;;1.40;1.40;;;17.00;99.90;;;;;;478951;248;28704;-69
2022/09/08 00:20:23;;;;;;;1.80;1.70;;;17.00;99.90;;;;;;478907;248;28850;-70
2022/09/08 00:22:24;;;;;;;1.30;1.30;;;16.90;99.90;;;;;;478959;248;28827;-69
2022/09/08 00:24:26;;;;;;;1.40;1.40;;;17.00;99.90;;;;;;478997;248;28791;-70
2022/09/08 00:26:27;;;;;;;1.70;1.60;;;16.90;99.90;;;;;;478836;248;28847;-72
2022/09/08 00:28:28;;;;;;;1.70;1.60;;;16.90;99.90;;;;;;478954;248;29182;-70
2022/09/08 00:30:30;;;;;;;1.30;1.30;;;16.80;99.90;;;;;;478969;248;29233;-70
2022/09/08 00:32:30;;;;;;;1.50;1.43;;;16.70;99.90;;;;;;478914;248;29432;-70
2022/09/08 00:34:34;;;;;;;1.40;1.40;;;16.60;99.90;;;;;;478977;247;29184;-70
2022/09/08 00:36:33;;;;;;;1.40;1.30;;;16.60;99.90;;;;;;478735;248;28763;-71
2022/09/08 00:38:35;;;;;;;1.73;1.70;;;16.50;99.90;;;;;;478966;248;28778;-70
2022/09/08 00:40:36;;;;;;;1.30;1.30;;;16.50;99.90;;;;;;478920;248;28825;-70
2022/09/08 00:42:37;;;;;;;1.60;1.50;;;16.50;99.90;;;;;;478828;248;28753;-70
2022/09/08 00:44:38;;;;;;;1.30;1.30;;;16.40;99.90;;;;;;478949;248;28718;-69
2022/09/08 00:46:39;;;;;;;1.70;1.60;;;16.50;99.90;;;;;;478890;248;28819;-71
2022/09/08 00:48:40;;;;;;;1.80;1.70;;;16.50;99.90;;;;;;478920;248;28758;-69
2022/09/08 00:50:42;;;;;;;1.80;1.70;;;16.50;99.90;;;;;;478922;248;28794;-70
2022/09/08 00:52:43;;;;;;;1.40;1.40;;;16.40;99.90;;;;;;478921;248;28718;-69
2022/09/08 00:54:44;;;;;;;1.40;1.37;;;16.40;99.90;;;;;;478947;248;29208;-69
2022/09/08 00:56:45;;;;;;;1.33;1.20;;;16.40;99.90;;;;;;478895;248;29301;-73
2022/09/08 00:58:47;;;;;;;1.47;1.37;;;16.40;99.90;;;;;;478943;248;29175;-70
2022/09/08 01:00:48;;;;;;;1.60;1.50;;;16.40;99.90;;;;;;478937;248;28808;-70
2022/09/08 01:02:49;;;;;;;1.50;1.50;;;16.50;99.90;;;;;;478917;248;28716;-69
2022/09/08 01:04:50;;;;;;;1.70;1.60;;;16.50;99.90;;;;;;478895;248;28825;-69
2022/09/08 01:13:51;;;;;;;1.60;1.50;;;16.40;99.90;;;;;;478896;248;29172;-70
2022/09/08 01:15:52;;;;;;;2.00;1.90;;;16.40;99.90;;;;;;478949;247;28757;-72
2022/09/08 01:17:54;;;;;;;2.20;1.67;;;16.40;99.90;;;;;;478899;248;28711;-70
2022/09/08 01:19:54;;;;;;;1.63;1.53;;;16.40;99.90;;;;;;478904;248;28753;-70
2022/09/08 01:21:55;;;;;;;2.50;1.97;;;16.40;99.90;;;;;;478946;248;28714;-70
2022/09/08 01:23:57;;;;;;;1.50;1.40;;;16.30;99.90;;;;;;478956;247;28813;-69
2022/09/08 01:26:01;;;;;;;1.60;1.50;;;16.30;99.90;;;;;;478952;248;29111;-72
2022/09/08 01:27:59;;;;;;;2.93;1.60;;;16.40;99.90;;;;;;478695;248;28722;-70
2022/09/08 01:30:00;;;;;;;1.70;1.70;;;16.30;99.90;;;;;;478959;248;28749;-70
2022/09/08 01:32:02;;;;;;;2.20;1.70;;;16.40;99.90;;;;;;478933;248;29220;-69
2022/09/08 01:34:03;;;;;;;2.60;1.97;;;16.20;99.90;;;;;;478928;248;29249;-69
2022/09/08 01:36:04;;;;;;;2.00;1.80;;;16.10;99.90;;;;;;478910;248;29329;-73
2022/09/08 01:38:05;;;;;;;2.30;2.00;;;16.00;99.90;;;;;;478891;248;28794;-69
2022/09/08 01:40:07;;;;;;;1.90;1.80;;;16.00;99.90;;;;;;478921;248;28746;-71
2022/09/08 01:42:08;;;;;;;1.63;1.60;;;16.10;99.90;;;;;;478832;248;28710;-69
2022/09/08 01:44:09;;;;;;;1.93;1.83;;;16.20;99.90;;;;;;478897;248;28745;-70
2022/09/08 01:46:10;;;;;;;1.87;1.77;;;16.20;99.90;;;;;;478901;248;29092;-69
2022/09/08 01:48:12;;;;;;;1.70;1.60;;;16.30;99.90;;;;;;478950;248;28762;-70
2022/09/08 01:50:13;;;;;;;1.87;1.77;;;16.20;99.90;;;;;;478934;248;28755;-70
2022/09/08 01:52:14;;;;;;;1.90;1.80;;;16.20;99.90;;;;;;478933;248;28719;-70
2022/09/08 01:54:15;;;;;;;1.90;1.80;;;16.20;99.90;;;;;;478930;248;28751;-69
2022/09/08 01:56:17;;;;;;;2.40;2.20;;;16.10;99.90;;;;;;478893;248;29301;-72
2022/09/08 01:58:18;;;;;;;1.50;1.40;;;16.20;99.90;;;;;;478957;248;29195;-70
2022/09/08 02:00:20;;;;;;;1.73;1.63;;;16.20;99.90;;;;;;478970;248;29307;-71
2022/09/08 02:02:20;;;;;;;1.60;1.50;;;16.20;99.90;;;;;;478954;248;28709;-69
2022/09/08 02:04:22;;;;;;;1.83;1.73;;;16.20;99.90;;;;;;478957;248;28747;-70
2022/09/08 02:06:23;;;;;;;1.53;1.50;;;16.30;99.90;;;;;;478912;248;28741;-70
2022/09/08 02:08:24;;;;;;;1.60;1.50;;;16.20;99.90;;;;;;478946;248;28782;-70
2022/09/08 02:10:26;;;;;;;1.63;1.60;;;16.20;99.90;;;;;;478970;247;28767;-71
2022/09/08 02:12:27;;;;;;;1.87;1.77;;;16.10;99.90;;;;;;478842;248;28718;-69
2022/09/08 02:14:28;;;;;;;1.70;1.60;;;16.00;99.90;;;;;;478938;246;28757;-69
2022/09/08 02:16:30;;;;;;;1.50;1.40;;;16.00;99.90;;;;;;478907;246;28885;-72
2022/09/08 02:18:30;;;;;;;1.83;1.73;;;15.90;99.90;;;;;;478972;248;29271;-69
2022/09/08 02:20:32;;;;;;;2.00;1.90;;;15.90;99.90;;;;;;478944;248;29396;-69
2022/09/08 02:22:33;;;;;;;1.60;1.60;;;16.00;99.90;;;;;;478948;248;29166;-69
2022/09/08 02:24:34;;;;;;;1.80;1.70;;;16.00;99.90;;;;;;478934;248;28868;-69
2022/09/08 02:26:37;;;;;;;1.93;1.83;;;16.00;99.90;;;;;;478889;248;28745;-72
2022/09/08 02:28:37;;;;;;;1.70;1.60;;;16.00;99.90;;;;;;478865;248;28765;-69
2022/09/08 02:30:38;;;;;;;1.60;1.60;;;15.90;99.90;;;;;;478935;248;28754;-70
2022/09/08 02:32:39;;;;;;;1.73;1.63;;;15.90;99.90;;;;;;478944;246;28757;-71
2022/09/08 02:34:40;;;;;;;1.73;1.70;;;15.90;99.90;;;;;;478945;248;28741;-70
2022/09/08 02:36:42;;;;;;;1.80;1.70;;;15.90;99.90;;;;;;478927;248;28766;-72
2022/09/08 02:38:43;;;;;;;1.90;1.80;;;15.90;99.90;;;;;;478982;248;28778;-69
2022/09/08 02:40:44;;;;;;;1.67;1.63;;;16.00;99.90;;;;;;478946;248;28863;-70
2022/09/08 02:42:46;;;;;;;2.17;1.97;;;16.00;99.90;;;;;;478867;248;29176;-69
2022/09/08 02:44:47;;;;;;;2.10;2.00;;;15.90;99.90;;;;;;478958;248;29314;-69
2022/09/08 02:46:48;;;;;;;1.90;1.80;;;15.90;99.90;;;;;;478931;248;29252;-73
2022/09/08 02:48:49;;;;;;;2.77;1.80;;;15.90;99.90;;;;;;478975;248;29172;-70
2022/09/08 02:50:50;;;;;;;2.07;1.97;;;15.80;99.90;;;;;;478962;248;28877;-71
2022/09/08 02:52:52;;;;;;;1.70;1.60;;;15.80;99.90;;;;;;478941;248;28754;-70
2022/09/08 02:54:54;;;;;;;1.97;1.87;;;15.90;99.90;;;;;;478954;248;28820;-69
2022/09/08 02:56:54;;;;;;;1.97;1.87;;;15.90;99.90;;;;;;478882;248;28745;-72
2022/09/08 02:58:55;;;;;;;1.90;1.80;;;16.00;99.90;;;;;;478960;247;28737;-70
2022/09/08 03:00:57;;;;;;;2.13;2.03;;;16.00;99.90;;;;;;478962;248;28874;-70
2022/09/08 03:02:58;;;;;;;2.00;1.80;;;15.90;99.90;;;;;;478927;247;28799;-69
2022/09/08 03:04:59;;;;;;;2.00;1.80;;;15.90;99.90;;;;;;478935;248;28753;-70
2022/09/08 03:07:00;;;;;;;1.57;1.57;;;15.90;99.90;;;;;;478878;248;29228;-72
2022/09/08 03:09:02;;;;;;;2.50;1.73;;;16.00;99.90;;;;;;478945;248;30141;-71
2022/09/08 03:11:03;;;;;;;1.70;1.60;;;16.00;99.90;;;;;;478954;248;29225;-70
2022/09/08 03:13:04;;;;;;;1.60;1.50;;;16.00;99.90;;;;;;478953;248;29175;-69
2022/09/08 03:15:05;;;;;;;1.70;1.60;;;16.00;99.90;;;;;;478973;248;28709;-70
2022/09/08 03:17:07;;;;;;;2.00;1.90;;;16.00;99.90;;;;;;478912;248;28773;-72
2022/09/08 03:19:08;;;;;;;2.07;1.40;;;16.00;99.90;;;;;;478968;248;28703;-69
2022/09/08 03:21:09;;;;;;;1.90;1.80;;;16.00;99.90;;;;;;478965;248;28832;-70
2022/09/08 03:23:10;;;;;;;1.40;1.40;;;16.10;99.90;;;;;;478947;248;28701;-69
2022/09/08 03:25:12;;;;;;;1.43;1.40;;;16.10;99.90;;;;;;478948;248;28832;-70
2022/09/08 03:27:13;;;;;;;1.80;1.70;;;16.10;99.90;;;;;;478920;248;28791;-71
2022/09/08 03:29:14;;;;;;;1.67;1.57;;;16.00;99.90;;;;;;478948;248;28719;-69
2022/09/08 03:31:15;;;;;;;1.33;1.33;;;16.00;99.90;;;;;;478955;248;28820;-70
2022/09/08 03:33:17;;;;;;;1.50;1.40;;;16.00;99.90;;;;;;478950;248;29957;-69
2022/09/08 03:35:18;;;;;;;1.73;1.63;;;16.10;99.90;;;;;;478987;248;29283;-70
2022/09/08 03:37:19;;;;;;;1.60;1.60;;;16.10;99.90;;;;;;478936;248;29350;-71
2022/09/08 03:39:21;;;;;;;3.27;1.93;;;16.10;99.90;;;;;;478968;248;28711;-69
2022/09/08 03:41:22;;;;;;;1.70;1.60;;;16.00;99.90;;;;;;478908;248;28763;-70
2022/09/08 03:43:23;;;;;;;1.57;1.47;;;16.00;99.90;;;;;;478831;248;28713;-69
2022/09/08 03:45:24;;;;;;;2.40;1.67;;;16.00;99.90;;;;;;478927;248;28725;-69
2022/09/08 03:47:26;;;;;;;1.60;1.50;;;16.00;99.90;;;;;;478870;246;28817;-71
2022/09/08 03:49:27;;;;;;;1.60;1.50;;;16.00;99.90;;;;;;478927;248;28804;-70
2022/09/08 03:51:28;;;;;;;1.80;1.70;;;15.90;99.90;;;;;;478925;248;28788;-70
2022/09/08 03:53:29;;;;;;;1.97;1.70;;;15.90;99.90;;;;;;478928;248;28832;-70
2022/09/08 03:55:31;;;;;;;2.03;1.70;;;15.90;99.90;;;;;;478929;248;28837;-70
2022/09/08 03:57:32;;;;;;;2.07;1.80;;;15.80;99.90;;;;;;478868;248;29345;-71
2022/09/08 03:59:33;;;;;;;2.50;2.00;;;15.80;99.90;;;;;;478955;248;29213;-70
2022/09/08 04:01:35;;;;;;;1.83;1.73;;;15.80;99.90;;;;;;478957;248;29260;-70
2022/09/08 04:03:36;;;;;;;1.90;1.80;;;15.90;99.90;;;;;;478884;248;30837;-70
2022/09/08 04:05:37;;;;;;;1.53;1.50;;;15.90;99.90;;;;;;478958;248;28731;-70
2022/09/08 04:07:38;;;;;;;2.00;1.90;;;15.90;99.90;;;;;;478926;248;28757;-72
2022/09/08 04:09:39;;;;;;;1.60;1.50;;;15.90;99.90;;;;;;478915;248;28717;-70
2022/09/08 04:11:41;;;;;;;1.90;1.77;;;15.80;99.90;;;;;;478959;247;28843;-70
2022/09/08 04:13:42;;;;;;;2.00;1.90;;;15.80;99.90;;;;;;478895;247;28868;-70
2022/09/08 04:15:43;;;;;;;1.60;1.50;;;15.80;99.90;;;;;;478961;248;28801;-69
2022/09/08 04:17:44;;;;;;;1.70;1.63;;;15.80;99.90;;;;;;478880;248;28754;-71
2022/09/08 04:19:46;;;;;;;1.90;1.80;;;15.80;99.90;;;;;;478957;248;28715;-69
2022/09/08 04:21:47;;;;;;;1.80;1.70;;;15.80;99.90;;;;;;478919;247;29238;-69
2022/09/08 04:23:48;;;;;;;1.60;1.50;;;15.70;99.90;;;;;;478928;248;29974;-69
2022/09/08 04:25:49;;;;;;;1.90;1.80;;;15.70;99.90;;;;;;478954;246;29176;-70
2022/09/08 04:27:51;;;;;;;1.50;1.50;;;15.80;99.90;;;;;;478905;248;29213;-71
2022/09/08 04:29:52;;;;;;;1.70;1.60;;;15.70;99.90;;;;;;478949;248;28825;-69
2022/09/08 04:31:53;;;;;;;1.50;1.50;;;15.70;99.90;;;;;;478935;248;28750;-70
2022/09/08 04:33:54;;;;;;;1.73;1.63;;;15.70;99.90;;;;;;478936;248;28739;-69
2022/09/08 04:35:56;;;;;;;1.50;1.50;;;15.70;99.90;;;;;;478946;248;28778;-70
2022/09/08 04:37:57;;;;;;;1.90;1.80;;;15.60;99.90;;;;;;478899;248;28750;-72
2022/09/08 04:39:59;;;;;;;1.80;1.70;;;15.60;99.90;;;;;;478949;248;28733;-70
2022/09/08 04:41:59;;;;;;;1.80;1.70;;;15.50;99.90;;;;;;478936;248;28755;-70
2022/09/08 04:44:02;;;;;;;1.30;1.20;;;15.50;99.90;;;;;;478927;248;28768;-72
2022/09/08 04:46:02;;;;;;;1.50;1.50;;;15.50;99.90;;;;;;478877;248;28870;-69
2022/09/08 04:48:03;;;;;;;1.67;1.47;;;15.50;99.90;;;;;;478906;248;29243;-71
2022/09/08 04:50:04;;;;;;;1.40;1.33;;;15.50;99.90;;;;;;478938;248;29175;-69
2022/09/08 04:52:06;;;;;;;1.47;1.37;;;15.40;99.90;;;;;;478936;248;29328;-70
2022/09/08 04:54:08;;;;;;;1.20;1.20;;;15.40;99.90;;;;;;478922;247;29027;-69
2022/09/08 04:56:08;;;;;;;1.50;1.40;;;15.40;99.90;;;;;;478845;248;28786;-70
2022/09/08 04:58:09;;;;;;;1.77;1.67;;;15.40;99.90;;;;;;478990;248;28836;-71
2022/09/08 05:00:12;;;;;;;1.47;1.37;;;15.40;99.90;;;;;;478987;248;28733;-69
2022/09/08 05:02:13;;;;;;;1.77;1.67;;;15.30;99.90;;;;;;478883;248;28747;-70
2022/09/08 05:04:13;;;;;;;1.73;1.57;;;15.30;99.90;;;;;;478954;248;28221;-69
2022/09/08 05:06:14;;;;;;;1.53;1.53;;;15.30;99.90;;;;;;478912;248;28734;-71
2022/09/08 05:08:16;;;;;;;1.60;1.50;;;15.30;99.90;;;;;;478957;248;28747;-70
2022/09/08 05:10:18;;;;;;;1.50;1.50;;;15.30;99.90;;;;;;478943;247;28797;-70
2022/09/08 05:12:18;;;;;;;1.50;1.40;;;15.30;99.90;;;;;;478895;248;29278;-70
2022/09/08 05:14:19;;;;;;;1.70;1.60;;;15.40;99.90;;;;;;478893;248;29705;-70
2022/09/08 05:16:21;;;;;;;1.70;1.60;;;15.40;99.90;;;;;;478892;248;30420;-70
2022/09/08 05:18:22;;;;;;;1.60;1.57;;;15.40;99.90;;;;;;478955;248;29235;-69
2022/09/08 05:20:23;;;;;;;1.30;1.30;;;15.40;99.90;;;;;;478943;248;28710;-71
2022/09/08 05:22:24;;;;;;;1.50;1.40;;;15.40;99.90;;;;;;478934;248;28746;-70
2022/09/08 05:24:26;;;;;;;3.90;1.70;;;15.30;99.90;;;;;;478955;248;28830;-69
2022/09/08 05:26:27;;;;;;;1.40;1.40;;;15.40;99.90;;;;;;478930;248;28766;-70
2022/09/08 05:28:28;;;;;;;1.53;1.43;;;15.30;99.90;;;;;;478945;248;28839;-70
2022/09/08 05:30:29;;;;;;;1.80;1.70;;;15.40;99.90;;;;;;478937;248;28765;-70
2022/09/08 05:32:31;;;;;;;2.50;1.87;;;15.30;99.90;;;;;;478927;248;28820;-70
2022/09/08 05:34:32;;;;;;;3.33;1.90;;;15.30;99.90;;;;;;478930;248;28774;-72
2022/09/08 05:36:33;;;;;;;2.20;1.97;;;15.20;99.90;;;;;;478864;248;29254;-69
2022/09/08 05:38:34;;;;;;;1.70;1.60;;;15.20;99.90;;;;;;478954;248;29265;-71
2022/09/08 05:40:39;;;;;;;2.07;1.93;;;15.20;99.90;;;;;;478925;248;29173;-69
2022/09/08 05:42:40;;;;;;;9.80;1.80;;;15.20;99.90;;;;;;478937;248;28706;-69
2022/09/08 05:44:41;;;;;;;1.57;1.47;;;15.10;99.90;;;;;;478952;248;28775;-70
2022/09/08 05:46:43;;;;;;;1.50;1.40;;;15.10;99.90;;;;;;478838;248;29306;-70
2022/09/08 05:48:44;;;;;;;1.43;1.43;;;15.10;99.90;;;;;;478921;248;29237;-70
2022/09/08 05:50:45;;;;;;;1.70;1.60;;;15.10;99.90;;;;;;478947;247;29285;-70
2022/09/08 05:52:46;;;;;;;1.60;1.60;;;15.10;99.90;;;;;;478943;248;29535;-69
2022/09/08 05:54:47;;;;;;;1.50;1.50;;;15.10;99.90;;;;;;478940;248;28747;-69
2022/09/08 05:56:49;;;;;;;1.40;1.40;;;15.10;99.90;;;;;;478904;248;28822;-71
2022/09/08 05:58:50;;;;;;;1.40;1.40;;;15.10;99.90;;;;;;478962;248;28707;-69
2022/09/08 06:00:51;;;;;;;2.20;1.53;;;15.10;99.90;;;;;;478961;248;28847;-70
2022/09/08 06:02:52;;;;;;;1.80;1.70;;;15.10;99.90;;;;;;478959;248;28736;-69
2022/09/08 06:04:55;;;;;;;1.83;1.73;;;15.10;99.90;;;;;;478957;248;28713;-70
2022/09/08 06:06:55;;;;;;;1.70;1.60;;;15.10;99.90;;;;;;478800;248;28737;-71
2022/09/08 06:08:59;;;;;;;1.83;1.73;;;15.10;99.90;;;;;;478943;248;28709;-69
2022/09/08 06:10:57;;;;;;;2.00;1.90;;;15.00;99.90;;;;;;478814;248;29353;-70
2022/09/08 06:12:59;;;;;;;2.40;2.30;;;15.00;99.90;;;;;;478960;248;29303;-73
2022/09/08 06:15:00;;;;;;;2.30;2.00;;;15.00;99.90;;;;;;478963;248;29166;-69
2022/09/08 06:17:01;;;;;;;2.03;1.93;;;15.10;99.90;;;;;;478854;248;29260;-70
2022/09/08 06:19:02;;;;;;;2.40;2.20;;;15.10;99.90;;;;;;478961;248;28789;-70
2022/09/08 06:21:04;;;;;;;2.40;2.30;;;15.20;99.90;;;;;;478945;248;28805;-70
2022/09/08 06:23:05;;;;;;;2.87;2.30;;;15.20;99.90;;;;;;478950;248;28741;-69
2022/09/08 06:25:06;;;;;;;3.63;2.63;;;15.20;99.90;;;;;;478963;248;28695;-70
2022/09/08 06:27:07;;;;;;;2.80;2.47;;;15.20;99.90;;;;;;478899;248;28766;-71
2022/09/08 06:29:10;;;;;;;2.43;2.33;;;15.20;99.90;;;;;;478963;247;28799;-69
2022/09/08 06:31:10;;;;;;;2.47;2.30;;;15.20;99.90;;;;;;478879;248;28753;-69
2022/09/08 06:33:11;;;;;;;2.30;2.20;;;15.30;99.90;;;;;;478993;248;28861;-72
2022/09/08 06:35:13;;;;;;;4.40;2.40;;;15.40;99.90;;;;;;478970;248;28801;-69
2022/09/08 06:37:14;;;;;;;2.60;2.40;;;15.30;99.90;;;;;;478868;248;29334;-71
2022/09/08 06:39:16;;;;;;;2.10;2.00;;;15.30;99.90;;;;;;478966;248;29159;-69
2022/09/08 06:41:16;;;;;;;2.80;2.33;;;15.30;99.90;;;;;;478892;248;29214;-70
2022/09/08 06:43:17;;;;;;;2.10;2.00;;;15.30;99.90;;;;;;478939;248;28846;-69
2022/09/08 06:45:19;;;;;;;2.10;2.00;;;15.30;99.90;;;;;;478962;248;28718;-70
2022/09/08 06:47:20;;;;;;;2.13;2.03;;;15.30;99.90;;;;;;478887;246;28845;-71
2022/09/08 06:49:21;;;;;;;2.50;2.40;;;15.30;99.90;;;;;;478957;248;28745;-70
2022/09/08 06:51:22;;;;;;;2.27;2.17;;;15.30;99.90;;;;;;478910;248;28751;-70
2022/09/08 06:53:24;;;;;;;1.80;1.70;;;15.30;99.90;;;;;;478938;248;29107;-69
2022/09/08 06:55:25;;;;;;;2.63;2.30;;;15.30;99.90;;;;;;478969;248;28789;-70
2022/09/08 06:57:26;;;;;;;7.57;2.77;;;15.30;99.90;;;;;;478851;248;28844;-71
2022/09/08 06:59:27;;;;;;;2.47;2.00;;;15.30;99.90;;;;;;478944;248;28717;-69
2022/09/08 07:01:29;;;;;;;3.50;2.33;;;15.30;99.90;;;;;;478943;248;29211;-70
2022/09/08 07:03:30;;;;;;;2.50;2.30;;;15.40;99.90;;;;;;478980;248;29295;-73
2022/09/08 07:05:31;;;;;;;2.40;2.20;;;15.50;99.90;;;;;;478923;248;29241;-69
2022/09/08 07:07:32;;;;;;;1.90;1.80;;;15.60;99.90;;;;;;478856;248;28777;-70
2022/09/08 07:09:34;;;;;;;2.33;2.00;;;15.70;99.90;;;;;;478957;248;28707;-69
2022/09/08 07:11:35;;;;;;;1.97;1.77;;;15.80;99.90;;;;;;478948;248;28758;-70
2022/09/08 07:13:36;;;;;;;2.43;2.20;;;15.90;99.90;;;;;;478953;246;28849;-73
2022/09/08 07:15:37;;;;;;;2.27;2.17;;;15.90;99.90;;;;;;478943;248;28719;-70
2022/09/08 07:17:39;;;;;;;2.10;2.00;;;16.00;99.90;;;;;;478893;248;28765;-71
2022/09/08 07:19:40;;;;;;;2.00;1.90;;;16.10;99.90;;;;;;478937;248;28717;-69
2022/09/08 07:21:41;;;;;;;2.07;1.97;;;16.20;99.90;;;;;;478962;248;28804;-70
2022/09/08 07:23:43;;;;;;;2.07;1.97;;;16.10;99.90;;;;;;478974;248;28753;-73
2022/09/08 07:25:44;;;;;;;8.40;2.10;;;16.00;99.90;;;;;;478951;248;29175;-70
2022/09/08 07:27:45;;;;;;;2.10;2.00;;;15.90;99.90;;;;;;478896;246;29326;-69
2022/09/08 07:29:47;;;;;;;1.90;1.80;;;15.80;99.90;;;;;;478941;248;29189;-69
2022/09/08 07:31:48;;;;;;;1.70;1.60;;;15.90;99.90;;;;;;478928;248;29215;-69
2022/09/08 07:33:49;;;;;;;2.17;2.07;;;15.80;99.90;;;;;;478962;248;28768;-71
2022/09/08 07:35:50;;;;;;;2.93;2.73;;;15.80;99.90;;;;;;478959;247;28719;-70
2022/09/08 07:37:51;;;;;;;2.10;1.70;;;15.70;99.90;;;;;;478934;248;28752;-71
2022/09/08 07:39:53;;;;;;;1.87;1.73;;;15.80;99.90;;;;;;478954;248;28774;-69
2022/09/08 07:42:00;;;;;;;2.00;1.90;;;15.70;99.90;;;;;;478959;248;28757;-70
2022/09/08 07:43:59;;;;;;;3.40;1.90;;;15.70;99.90;;;;;;478738;248;28825;-69
2022/09/08 07:45:59;;;;;;;1.97;1.87;;;15.90;99.90;;;;;;478897;248;29179;-74
2022/09/08 07:48:01;;;;;;;1.67;1.57;;;15.90;99.90;;;;;;478928;248;28723;-69
2022/09/08 07:50:03;;;;;;;2.50;1.90;;;15.90;99.90;;;;;;478949;248;28828;-70
2022/09/08 07:52:03;;;;;;;1.80;1.70;;;15.80;99.90;;;;;;478919;248;29251;-69
2022/09/08 07:54:04;;;;;;;1.70;1.60;;;15.80;99.90;;;;;;478935;248;29281;-70
2022/09/08 07:56:05;;;;;;;3.40;1.40;;;15.90;99.90;;;;;;478919;248;29339;-74
2022/09/08 07:58:07;;;;;;;2.20;1.77;;;15.90;99.90;;;;;;478978;248;28734;-70
2022/09/08 08:00:08;;;;;;;1.50;1.40;;;15.80;99.90;;;;;;478987;248;28826;-70
2022/09/08 08:02:09;;;;;;;2.27;1.87;;;15.80;99.90;;;;;;478970;248;28799;-69
2022/09/08 08:04:10;;;;;;;2.10;1.43;;;15.70;99.90;;;;;;478959;248;28758;-69
2022/09/08 08:06:12;;;;;;;1.60;1.50;;;15.70;99.90;;;;;;478948;248;29107;-72
2022/09/08 08:08:13;;;;;;;1.50;1.40;;;15.80;99.90;;;;;;479015;247;28708;-70
2022/09/08 08:10:17;;;;;;;1.50;1.30;;;15.80;99.90;;;;;;478978;248;28745;-70
2022/09/08 08:12:18;;;;;;;3.80;1.50;;;15.90;99.90;;;;;;478997;248;29200;-71
2022/09/08 08:14:19;;;;;;;1.30;1.30;;;15.90;99.90;;;;;;478962;248;29254;-70
2022/09/08 08:16:21;;;;;;;1.60;1.50;;;15.90;99.90;;;;;;478882;248;29361;-70
2022/09/08 08:18:22;;;;;;;1.37;1.30;;;16.00;99.90;;;;;;478947;248;28746;-73
2022/09/08 08:20:23;;;;;;;2.57;1.40;;;16.10;99.90;;;;;;478987;248;28794;-70
2022/09/08 08:22:24;;;;;;;1.33;1.23;;;16.00;99.90;;;;;;478979;248;28743;-70
2022/09/08 08:24:26;;;;;;;1.30;1.20;;;16.20;99.90;;;;;;478958;246;28719;-69
2022/09/08 08:26:27;;;;;;;1.60;1.20;;;16.30;99.90;;;;;;478880;248;28758;-70
2022/09/08 08:28:28;;;;;;;1.30;1.20;;;16.40;99.90;;;;;;478977;248;29093;-73
2022/09/08 08:30:29;;;;;;;2.63;1.50;;;16.40;99.90;;;;;;478964;248;28822;-70
2022/09/08 08:32:32;;;;;;;1.60;1.50;;;16.50;99.90;;;;;;478964;247;28745;-72
2022/09/08 08:34:32;;;;;;;7.80;1.50;;;16.60;99.90;;;;;;478926;248;28760;-69
2022/09/08 08:36:33;;;;;;;1.60;1.30;;;16.60;99.90;;;;;;478884;248;29266;-69
2022/09/08 08:38:34;;;;;;;1.70;1.30;;;16.50;99.90;;;;;;478962;248;29243;-72
2022/09/08 08:40:36;;;;;;;1.83;1.40;;;16.60;99.90;;;;;;478981;248;29324;-69
2022/09/08 08:42:37;;;;;;;2.73;1.57;;;16.70;99.90;;;;;;478940;248;28829;-70
2022/09/08 08:44:38;;;;;;;1.43;1.30;;;16.80;99.90;;;;;;478955;248;28709;-69
2022/09/08 08:46:39;;;;;;;1.70;1.53;;;16.80;99.90;;;;;;478900;248;28740;-70
2022/09/08 08:48:41;;;;;;;1.60;1.40;;;16.80;99.90;;;;;;478965;248;28745;-69
2022/09/08 08:50:42;;;;;;;4.53;1.60;;;16.80;99.90;;;;;;478974;248;28812;-69
2022/09/08 08:52:43;;;;;;;1.50;1.40;;;16.90;99.90;;;;;;478958;248;28753;-71
2022/09/08 08:54:44;;;;;;;1.30;1.30;;;17.00;99.90;;;;;;478959;248;28781;-69
2022/09/08 08:56:46;;;;;;;1.63;1.47;;;17.00;99.90;;;;;;478885;248;28765;-71
2022/09/08 08:58:47;;;;;;;1.50;1.50;;;17.10;99.90;;;;;;478956;248;28767;-70
2022/09/08 09:00:48;;;;;;;1.40;1.30;;;17.20;99.90;;;;;;478964;248;29193;-70
2022/09/08 09:02:50;;;;;;;1.20;1.20;;;17.20;99.90;;;;;;478896;248;29251;-71
2022/09/08 09:04:53;;;;;;;1.50;1.20;;;16.90;99.90;;;;;;478946;248;29274;-70
2022/09/08 09:06:52;;;;;;;1.50;1.40;;;17.00;99.90;;;;;;478745;248;29215;-70
2022/09/08 09:08:53;;;;;;;1.60;1.50;;;17.20;99.90;;;;;;478903;248;28850;-69
2022/09/08 09:10:55;;;;;;;1.53;1.43;;;17.30;99.90;;;;;;478955;248;28714;-70
2022/09/08 09:12:56;;;;;;;3.20;1.40;;;17.00;99.90;;;;;;478953;248;28845;-72
2022/09/08 09:14:57;;;;;;;1.30;1.30;;;16.70;99.90;;;;;;478910;248;28700;-70
2022/09/08 09:16:58;;;;;;;1.30;1.20;;;16.60;99.90;;;;;;478863;248;28777;-70
2022/09/08 09:19:00;;;;;;;1.30;1.20;;;16.50;99.90;;;;;;478934;248;28834;-69
2022/09/08 09:21:01;;;;;;;1.53;1.40;;;16.40;99.90;;;;;;478912;248;28712;-70
2022/09/08 09:23:02;;;;;;;1.40;1.30;;;16.40;99.90;;;;;;478945;248;28763;-70
2022/09/08 09:25:03;;;;;;;1.63;1.53;;;16.40;99.90;;;;;;478940;248;29167;-70
2022/09/08 09:27:05;;;;;;;1.40;1.40;;;16.20;99.90;;;;;;478884;248;29242;-70
2022/09/08 09:29:06;;;;;;;1.30;1.20;;;16.40;99.90;;;;;;476243;248;37208;-70
2022/09/08 09:31:07;;;;;;;1.40;1.30;;;16.50;99.90;;;;;;478969;248;27837;-70
2022/09/08 09:33:09;;;;;;;1.10;1.10;;;16.60;99.90;;;;;;478924;248;28766;-72
2022/09/08 09:35:10;;;;;;;1.07;1.07;;;16.90;99.90;;;;;;478971;247;28698;-70
2022/09/08 09:37:11;;;;;;;1.33;1.33;;;16.90;99.90;;;;;;478853;248;28806;-70
2022/09/08 09:39:12;;;;;;;1.40;1.33;;;17.00;99.90;;;;;;478961;248;28727;-69
2022/09/08 09:41:13;;;;;;;1.87;1.30;;;17.00;99.90;;;;;;478974;248;28710;-70
2022/09/08 09:43:15;;;;;;;1.30;1.20;;;17.00;99.90;;;;;;478996;248;28756;-71
2022/09/08 09:45:16;;;;;;;1.77;1.47;;;17.00;99.90;;;;;;478994;248;28794;-69
2022/09/08 09:47:17;;;;;;;1.53;1.30;;;16.90;99.90;;;;;;478902;248;28767;-69
2022/09/08 09:49:21;;;;;;;2.40;1.20;;;17.00;99.90;;;;;;478990;248;29279;-73
2022/09/08 09:51:20;;;;;;;1.17;1.07;;;17.10;99.90;;;;;;478789;248;29180;-69
2022/09/08 09:53:21;;;;;;;1.40;1.30;;;17.30;99.90;;;;;;478980;248;29245;-71
2022/09/08 09:55:22;;;;;;;2.50;1.30;;;17.50;99.90;;;;;;478971;248;29343;-70
2022/09/08 09:57:23;;;;;;;1.33;1.10;;;17.70;99.90;;;;;;478849;248;28757;-70
2022/09/08 09:59:25;;;;;;;2.83;1.30;;;17.90;99.90;;;;;;478995;248;28743;-73
2022/09/08 10:01:26;;;;;;;2.67;1.10;;;17.80;99.90;;;;;;478978;248;28720;-70
2022/09/08 10:03:27;;;;;;;1.40;1.30;;;18.00;99.90;;;;;;478971;248;28766;-70
2022/09/08 10:05:29;;;;;;;1.27;1.07;;;18.10;99.90;;;;;;478970;246;28757;-70
2022/09/08 10:07:30;;;;;;;1.90;1.10;;;18.20;99.90;;;;;;478907;248;28742;-70
2022/09/08 10:09:31;;;;;;;2.20;1.20;;;18.20;99.90;;;;;;479000;248;29199;-73
2022/09/08 10:11:32;;;;;;;1.30;1.20;;;18.00;99.90;;;;;;478988;248;28772;-70
2022/09/08 10:13:33;;;;;;;2.10;1.17;;;17.80;99.90;;;;;;478974;248;28860;-71
2022/09/08 10:15:35;;;;;;;1.87;1.37;;;17.80;99.90;;;;;;478949;248;29181;-70
2022/09/08 10:17:36;;;;;;;1.17;1.17;;;17.70;99.90;;;;;;478886;248;29220;-70
2022/09/08 10:19:37;;;;;;;1.83;1.30;;;17.70;99.90;;;;;;478947;248;29440;-73
2022/09/08 10:21:38;;;;;;;1.33;1.20;;;18.00;99.90;;;;;;478979;248;28777;-71
2022/09/08 10:23:40;;;;;;;1.20;1.20;;;18.40;99.90;;;;;;478971;248;28845;-71
2022/09/08 10:25:41;;;;;;;1.30;1.30;;;18.50;99.90;;;;;;478980;248;28708;-70
2022/09/08 10:27:42;;;;;;;4.30;1.27;;;18.20;99.90;;;;;;478908;248;28835;-70
2022/09/08 10:29:43;;;;;;;1.47;1.37;;;18.00;99.90;;;;;;478961;248;28733;-69
2022/09/08 10:31:45;;;;;;;1.83;1.30;;;18.00;99.90;;;;;;478981;248;28724;-70
2022/09/08 10:33:46;;;;;;;1.53;1.43;;;17.80;99.90;;;;;;478961;248;28850;-71
2022/09/08 10:35:47;;;;;;;1.37;1.27;;;17.70;99.90;;;;;;478962;248;28712;-69
2022/09/08 10:37:48;;;;;;;1.47;1.37;;;17.80;99.90;;;;;;478931;248;28748;-70